Time;durP1;ratioP1;P1;durP2;ratioP2;P2;SDS_P1;SDS_P2;PMS_P1;PMS_P2;Temp;Humidity;BMP_temperature;BMP_pressure;BME280_temperature;BME280_humidity;BME280_pressure;Samples;Min_cycle;Max_cycle;Signal;HPM_P1;HPM_P2
2021/05/28 00:00:17;;;;;;;;;10.25;9.75;;;;;18.73;42.61;101405.41;5056577;28;45524;-86
2021/05/28 00:02:42;;;;;;;;;11.50;11.00;;;;;18.72;42.72;101406.38;5053934;28;45584;-83
2021/05/28 00:05:08;;;;;;;;;10.00;9.50;;;;;18.66;42.79;101414.91;5055362;28;45518;-86
2021/05/28 00:07:34;;;;;;;;;10.75;10.00;;;;;18.60;42.58;101403.03;5056719;28;45623;-86
2021/05/28 00:09:59;;;;;;;;;10.50;9.00;;;;;18.59;43.19;101408.47;5073373;28;47100;-84
2021/05/28 00:12:27;;;;;;;;;9.00;8.25;;;;;18.55;42.93;101412.41;5057275;28;45602;-87
2021/05/28 00:14:53;;;;;;;;;12.25;10.00;;;;;18.54;42.94;101415.97;5058895;28;45612;-87
2021/05/28 00:17:18;;;;;;;;;9.00;9.00;;;;;18.50;43.29;101419.91;5058692;28;45448;-87
2021/05/28 00:19:44;;;;;;;;;9.50;9.50;;;;;18.48;43.67;101411.25;5055331;28;46230;-87
2021/05/28 00:22:09;;;;;;;;;9.25;9.25;;;;;18.45;43.64;101421.19;5056464;28;45646;-85
2021/05/28 00:24:35;;;;;;;;;11.75;10.00;;;;;18.44;43.49;101416.00;5072188;28;45556;-85
2021/05/28 00:30:22;;;;;;;;;10.50;9.00;;;;;18.36;44.32;101422.00;5059575;28;46132;-87
2021/05/28 00:32:47;;;;;;;;;10.00;9.25;;;;;18.33;43.70;101422.28;5060102;28;45632;-84
2021/05/28 00:35:13;;;;;;;;;10.00;9.75;;;;;18.26;43.71;101413.19;5060340;28;45563;-85
2021/05/28 00:37:39;;;;;;;;;10.50;10.00;;;;;18.27;43.75;101419.34;5058558;28;45654;-86
2021/05/28 00:40:06;;;;;;;;;11.00;10.00;;;;;18.23;44.24;101412.63;5057277;28;46183;-85
2021/05/28 00:42:32;;;;;;;;;11.25;10.75;;;;;18.23;44.43;101421.44;5057007;28;45442;-85
2021/05/28 00:44:57;;;;;;;;;12.00;11.00;;;;;18.20;44.04;101418.19;5057940;28;45720;-86
2021/05/28 00:47:23;;;;;;;;;9.75;9.25;;;;;18.15;44.55;101415.97;5057497;28;46358;-86
2021/05/28 00:49:48;;;;;;;;;9.75;9.25;;;;;18.13;44.61;101422.41;5058754;28;46007;-88
2021/05/28 00:52:14;;;;;;;;;10.75;10.00;;;;;18.11;44.79;101429.66;5057575;28;45715;-86
2021/05/28 00:54:40;;;;;;;;;11.75;11.50;;;;;18.06;44.89;101422.09;5058383;28;45661;-87
2021/05/28 01:00:29;;;;;;;;;11.00;10.25;;;;;17.99;44.94;101432.41;5057892;28;45659;-85
2021/05/28 01:02:54;;;;;;;;;9.75;9.75;;;;;17.91;45.22;101423.47;5057131;27;45671;-85
2021/05/28 01:05:20;;;;;;;;;14.00;12.00;;;;;17.95;45.11;101436.31;5058100;28;45578;-85
2021/05/28 01:07:46;;;;;;;;;12.50;12.00;;;;;17.91;45.48;101434.09;5057207;28;45793;-84
2021/05/28 01:10:14;;;;;;;;;10.25;9.50;;;;;17.89;45.20;101436.88;5057172;28;46507;-85
2021/05/28 01:12:40;;;;;;;;;11.50;10.75;;;;;17.86;45.50;101439.81;5057231;28;45705;-87
2021/05/28 01:15:07;;;;;;;;;13.50;10.75;;;;;17.86;45.69;101433.66;5055723;28;45917;-87
2021/05/28 01:17:32;;;;;;;;;10.25;10.25;;;;;17.76;45.96;101427.50;5057330;28;45551;-84
2021/05/28 01:19:58;;;;;;;;;11.75;11.50;;;;;17.79;45.65;101436.00;5056641;28;45722;-85
2021/05/28 01:22:24;;;;;;;;;12.75;11.75;;;;;17.69;45.68;101424.53;5060133;28;45664;-85
2021/05/28 01:24:49;;;;;;;;;13.75;11.75;;;;;17.72;45.86;101434.03;5060540;28;45660;-84
2021/05/28 01:30:37;;;;;;;;;10.25;10.25;;;;;17.61;46.00;101424.34;5058479;28;46018;-87
2021/05/28 01:33:02;;;;;;;;;12.00;12.00;;;;;17.59;46.07;101428.94;5059107;28;45500;-86
2021/05/28 01:35:28;;;;;;;;;11.00;10.75;;;;;17.60;46.19;101433.28;5073631;28;46008;-85
2021/05/28 01:37:53;;;;;;;;;10.75;10.00;;;;;17.58;46.63;101444.00;5059014;28;47240;-89
2021/05/28 01:40:20;;;;;;;;;10.50;10.25;;;;;17.56;46.13;101443.28;5057238;28;47420;-87
2021/05/28 01:42:46;;;;;;;;;10.25;10.00;;;;;17.56;46.56;101442.44;5059487;28;45562;-85
2021/05/28 01:45:12;;;;;;;;;11.25;9.75;;;;;17.50;46.35;101433.22;5058151;28;45676;-83
2021/05/28 01:47:38;;;;;;;;;11.50;11.00;;;;;17.53;46.69;101438.25;5058184;28;46696;-86
2021/05/28 01:50:04;;;;;;;;;9.50;9.50;;;;;17.45;46.70;101432.78;5055412;28;45412;-86
2021/05/28 01:52:30;;;;;;;;;11.00;11.00;;;;;17.49;46.40;101443.97;5057657;28;45440;-87
2021/05/28 01:54:56;;;;;;;;;11.25;11.00;;;;;17.43;46.84;101432.09;5057767;28;45685;-85
2021/05/28 02:00:46;;;;;;;;;10.50;10.50;;;;;17.43;46.67;101439.19;5059356;28;45990;-84
2021/05/28 02:03:12;;;;;;;;;13.00;12.50;;;;;17.40;46.78;101445.59;5058235;28;45602;-87
2021/05/28 02:05:37;;;;;;;;;12.25;11.00;;;;;17.40;47.03;101442.94;5058584;28;45598;-85
2021/05/28 02:08:04;;;;;;;;;10.00;10.00;;;;;17.39;46.93;101445.72;5055750;28;48158;-85
2021/05/28 02:10:30;;;;;;;;;12.00;12.00;;;;;17.33;47.07;101433.81;5057007;28;47368;-87
2021/05/28 02:12:59;;;;;;;;;12.25;11.50;;;;;17.37;47.20;101445.03;5057975;28;45747;-87
2021/05/28 02:15:25;;;;;;;;;12.25;12.25;;;;;17.34;47.14;101450.56;5055396;28;45943;-83
2021/05/28 02:17:52;;;;;;;;;12.00;11.00;;;;;17.31;47.07;101446.38;5056635;28;45565;-88
2021/05/28 02:20:18;;;;;;;;;12.00;11.50;;;;;17.31;47.46;101451.69;5056075;28;45954;-88
2021/05/28 02:22:43;;;;;;;;;12.75;12.25;;;;;17.27;47.38;101444.97;5056218;28;45790;-83
2021/05/28 02:25:09;;;;;;;;;11.00;10.50;;;;;17.25;47.09;101452.19;5055902;28;45531;-85
2021/05/28 02:30:57;;;;;;;;;13.00;12.50;;;;;17.14;47.42;101452.28;5052889;28;45674;-85
2021/05/28 02:33:22;;;;;;;;;13.00;10.00;;;;;17.09;47.64;101449.19;5055185;28;45663;-85
2021/05/28 02:35:47;;;;;;;;;13.00;11.75;;;;;17.06;47.50;101452.91;5059330;28;45536;-85
2021/05/28 02:38:13;;;;;;;;;13.00;13.00;;;;;17.00;47.68;101447.31;5074708;28;47383;-85
2021/05/28 02:40:38;;;;;;;;;12.25;11.00;;;;;17.00;47.90;101450.81;5058712;28;45562;-86
2021/05/28 02:43:03;;;;;;;;;13.00;12.00;;;;;16.98;48.17;101457.19;5057007;28;45700;-85
2021/05/28 02:45:29;;;;;;;;;13.00;12.75;;;;;16.88;48.23;101441.25;5056128;28;45577;-87
2021/05/28 02:47:57;;;;;;;;;15.50;14.00;;;;;16.84;48.28;101445.13;5054843;28;46456;-87
2021/05/28 02:50:22;;;;;;;;;14.25;13.25;;;;;16.89;48.24;101456.19;5071068;28;47657;-85
2021/05/28 02:52:48;;;;;;;;;14.25;13.00;;;;;16.85;48.37;101465.31;5055887;28;45570;-87
2021/05/28 02:55:13;;;;;;;;;16.50;15.00;;;;;16.82;48.52;101457.66;5056505;28;45565;-86
2021/05/28 03:01:01;;;;;;;;;12.75;12.75;;;;;16.71;48.85;101455.06;5058861;28;45754;-86
2021/05/28 03:03:26;;;;;;;;;12.50;12.25;;;;;16.72;48.65;101448.81;5057805;28;45702;-85
2021/05/28 03:05:52;;;;;;;;;12.50;12.50;;;;;16.65;48.96;101453.75;5059522;28;45747;-85
2021/05/28 03:08:18;;;;;;;;;13.00;12.00;;;;;16.67;48.78;101470.34;5073495;27;47810;-83
2021/05/28 03:10:44;;;;;;;;;14.75;13.00;;;;;16.64;48.81;101462.66;5054943;28;48389;-86
2021/05/28 03:13:09;;;;;;;;;13.25;13.25;;;;;16.57;49.13;101450.84;5056427;28;45620;-85
2021/05/28 03:15:35;;;;;;;;;14.75;14.75;;;;;16.60;49.10;101455.09;5055599;28;45467;-86
2021/05/28 03:18:01;;;;;;;;;15.00;13.00;;;;;16.50;49.02;101451.50;5055585;28;45558;-83
2021/05/28 03:20:34;;;;;;;;;16.25;15.00;;;;;16.54;49.21;101463.50;5074052;28;47969;-84
2021/05/28 03:22:59;;;;;;;;;12.50;12.25;;;;;16.44;49.13;101452.00;5057957;28;45826;-85
2021/05/28 03:25:26;;;;;;;;;12.00;12.00;;;;;16.43;49.38;101456.47;5058126;28;45979;-82
2021/05/28 03:31:13;;;;;;;;;14.25;13.25;;;;;16.37;49.30;101457.78;5052902;28;45756;-85
2021/05/28 03:33:39;;;;;;;;;14.25;12.75;;;;;16.29;49.57;101439.09;5055098;28;45759;-87
2021/05/28 03:36:06;;;;;;;;;15.75;13.00;;;;;16.31;49.78;101454.81;5054904;28;45733;-84
2021/05/28 03:38:32;;;;;;;;;13.50;12.25;;;;;16.28;49.35;101463.84;5052785;28;47765;-84
2021/05/28 03:40:59;;;;;;;;;12.50;12.00;;;;;16.23;49.75;101458.09;5054334;28;45905;-85
2021/05/28 03:43:25;;;;;;;;;14.50;12.50;;;;;16.22;49.85;101451.13;5055310;28;45684;-85
2021/05/28 03:45:50;;;;;;;;;15.50;13.75;;;;;16.16;50.13;101448.97;5054266;28;46055;-85
2021/05/28 03:48:16;;;;;;;;;14.75;14.00;;;;;16.12;49.94;101444.06;5057182;28;46144;-87
2021/05/28 03:50:41;;;;;;;;;16.75;16.25;;;;;16.05;50.18;101438.41;5057315;28;46147;-86
2021/05/28 03:53:07;;;;;;;;;16.00;14.75;;;;;16.02;50.01;101432.56;5057835;28;45578;-86
2021/05/28 03:55:32;;;;;;;;;15.50;14.25;;;;;16.06;50.12;101448.03;5055794;28;45815;-87
2021/05/28 04:01:19;;;;;;;;;18.75;17.50;;;;;15.97;50.39;101432.94;5061369;28;45656;-87
2021/05/28 04:03:45;;;;;;;;;16.50;15.00;;;;;16.00;50.37;101439.75;5061698;28;45645;-85
2021/05/28 04:06:10;;;;;;;;;15.00;15.00;;;;;15.93;50.42;101436.75;5059880;28;45785;-86
2021/05/28 04:08:36;;;;;;;;;13.00;12.75;;;;;15.91;50.46;101430.78;5058104;28;46577;-85
2021/05/28 04:11:01;;;;;;;;;17.75;17.00;;;;;15.93;50.76;101442.88;5058157;28;46205;-85
2021/05/28 04:13:32;;;;;;;;;20.25;18.75;;;;;15.92;50.75;101443.03;5059634;28;45631;-86
2021/05/28 04:15:59;;;;;;;;;17.25;17.25;;;;;15.94;50.80;101452.50;5060491;28;45868;-87
2021/05/28 04:18:25;;;;;;;;;17.75;15.25;;;;;15.88;50.90;101442.41;5062802;28;45686;-87
2021/05/28 04:20:51;;;;;;;;;17.50;17.50;;;;;15.93;50.91;101449.97;5060740;28;46099;-86
2021/05/28 04:23:19;;;;;;;;;17.25;17.00;;;;;15.91;51.25;101463.34;5075362;28;45817;-87
2021/05/28 04:25:45;;;;;;;;;18.75;17.50;;;;;15.89;51.26;101454.66;5060340;28;45766;-87
2021/05/28 04:31:59;;;;;;;;;19.25;18.50;;;;;15.81;51.24;101451.81;5055082;28;45677;-88
2021/05/28 04:34:25;;;;;;;;;21.25;19.25;;;;;15.78;51.15;101451.19;5057538;28;46172;-88
2021/05/28 04:36:50;;;;;;;;;21.75;19.00;;;;;15.76;51.47;101453.13;5056401;28;45594;-85
2021/05/28 04:39:15;;;;;;;;;22.75;20.00;;;;;15.78;51.34;101461.78;5056119;28;47692;-87
2021/05/28 04:41:41;;;;;;;;;20.25;18.50;;;;;15.69;51.52;101454.56;5057812;28;47003;-88
2021/05/28 04:44:07;;;;;;;;;18.50;17.00;;;;;15.66;51.78;101457.44;5059449;28;46022;-88
2021/05/28 04:46:33;;;;;;;;;17.25;15.50;;;;;15.71;51.51;101471.97;5059627;28;45633;-88
2021/05/28 04:48:59;;;;;;;;;20.50;19.75;;;;;15.59;51.98;101461.56;5059242;28;45487;-89
2021/05/28 04:51:24;;;;;;;;;19.00;17.75;;;;;15.68;52.09;101472.22;5058403;28;46836;-88
2021/05/28 04:53:49;;;;;;;;;15.25;13.75;;;;;15.64;51.81;101465.50;5057948;28;46145;-87
2021/05/28 04:56:15;;;;;;;;;14.75;13.75;;;;;15.68;51.76;101474.88;5057803;28;45788;-85
2021/05/28 04:58:41;;;;;;;;;18.75;18.75;;;;;15.70;51.90;101472.13;5057760;28;46470;-86
2021/05/28 05:01:07;;;;;;;;;16.00;16.00;;;;;15.71;52.07;101479.09;5056039;28;47125;-87
2021/05/28 05:03:32;;;;;;;;;27.50;24.75;;;;;15.66;51.94;101475.94;5057631;28;45617;-84
2021/05/28 05:05:57;;;;;;;;;19.00;16.75;;;;;15.71;52.22;101481.72;5056926;28;45793;-84
2021/05/28 05:08:23;;;;;;;;;20.25;19.25;;;;;15.64;51.88;101480.53;5056716;28;45573;-86
2021/05/28 05:10:48;;;;;;;;;20.00;18.50;;;;;15.68;52.47;101488.09;5056311;28;46291;-84
2021/05/28 05:16:35;;;;;;;;;19.00;18.00;;;;;15.71;52.23;101501.03;5059235;28;45716;-83
2021/05/28 05:19:01;;;;;;;;;22.00;19.50;;;;;15.74;52.27;101502.59;5060531;28;45515;-84
2021/05/28 05:21:26;;;;;;;;;22.00;20.75;;;;;15.76;52.57;101508.63;5062953;28;45613;-84
2021/05/28 05:23:52;;;;;;;;;20.50;20.00;;;;;15.74;52.57;101492.03;5063111;28;45485;-85
2021/05/28 05:26:17;;;;;;;;;20.75;18.75;;;;;15.80;52.22;101507.41;5060726;28;45502;-85
2021/05/28 05:32:04;;;;;;;;;21.00;20.25;;;;;15.85;52.26;101502.59;5054247;28;45969;-84
2021/05/28 05:34:31;;;;;;;;;19.25;19.00;;;;;15.85;52.71;101506.09;5060500;28;45532;-85
2021/05/28 05:36:58;;;;;;;;;20.00;19.75;;;;;15.82;52.61;101501.03;5061240;28;45569;-84
2021/05/28 05:39:23;;;;;;;;;24.75;19.50;;;;;15.86;52.51;101504.31;5060011;28;45671;-85
2021/05/28 05:41:49;;;;;;;;;21.75;19.50;;;;;15.87;52.90;101504.16;5058437;28;47259;-85
2021/05/28 05:44:14;;;;;;;;;20.75;19.25;;;;;15.88;52.77;101505.00;5059028;28;45784;-85
2021/05/28 05:46:40;;;;;;;;;20.00;19.75;;;;;15.85;52.85;101492.03;5071831;28;45760;-86
2021/05/28 05:49:05;;;;;;;;;20.50;19.75;;;;;15.87;52.95;101492.78;5055886;28;45729;-85
2021/05/28 05:51:31;;;;;;;;;21.00;20.00;;;;;15.87;52.76;101498.88;5055717;28;45683;-86
2021/05/28 05:53:56;;;;;;;;;23.25;20.00;;;;;15.93;52.51;101502.81;5056272;28;45686;-87
2021/05/28 05:56:22;;;;;;;;;23.25;22.25;;;;;15.90;52.75;101497.81;5056724;28;45638;-87
2021/05/28 06:02:09;;;;;;;;;19.50;18.50;;;;;15.92;52.69;101496.69;5055716;28;46257;-88
2021/05/28 06:04:35;;;;;;;;;20.50;20.25;;;;;15.92;53.06;101496.69;5055621;28;45629;-86
2021/05/28 06:07:00;;;;;;;;;21.50;19.75;;;;;15.90;52.98;101493.34;5054343;28;45664;-87
2021/05/28 06:09:26;;;;;;;;;22.25;21.00;;;;;15.90;52.96;101497.81;5055783;28;45562;-86
2021/05/28 06:11:51;;;;;;;;;22.00;20.75;;;;;15.94;52.98;101504.53;5055308;28;46193;-86
2021/05/28 06:14:17;;;;;;;;;23.00;20.75;;;;;15.97;53.05;101506.09;5071005;28;45666;-88
2021/05/28 06:16:42;;;;;;;;;28.25;23.00;;;;;15.97;53.22;101506.94;5055867;28;45841;-86
2021/05/28 06:19:08;;;;;;;;;23.50;21.75;;;;;15.94;53.04;101513.28;5055417;28;46167;-85
2021/05/28 06:21:34;;;;;;;;;20.50;20.00;;;;;15.96;52.84;101510.53;5053246;28;46207;-84
2021/05/28 06:24:00;;;;;;;;;24.00;22.00;;;;;15.94;52.85;101499.22;5055546;28;45832;-84
2021/05/28 06:26:26;;;;;;;;;22.25;21.00;;;;;15.98;52.86;101499.84;5055789;28;45717;-84
2021/05/28 06:32:13;;;;;;;;;24.00;23.50;;;;;16.04;52.99;101499.34;5056406;28;45780;-84
2021/05/28 06:34:38;;;;;;;;;25.00;23.50;;;;;16.01;52.94;101489.88;5057046;28;45550;-86
2021/05/28 06:37:04;;;;;;;;;23.50;22.00;;;;;16.05;52.81;101493.94;5072639;28;45910;-86
2021/05/28 06:39:31;;;;;;;;;26.50;21.25;;;;;16.05;53.25;101490.44;5054007;28;47393;-84
2021/05/28 06:41:56;;;;;;;;;22.25;21.25;;;;;16.10;52.88;101489.13;5054037;28;47950;-87
2021/05/28 06:44:23;;;;;;;;;23.00;22.50;;;;;16.16;53.32;101488.63;5055051;28;45890;-85
2021/05/28 06:46:50;;;;;;;;;23.50;22.50;;;;;16.18;53.31;101497.28;5055238;28;45695;-84
2021/05/28 06:49:16;;;;;;;;;25.00;23.00;;;;;16.19;53.34;101498.13;5053392;28;47700;-86
2021/05/28 06:51:41;;;;;;;;;24.00;20.50;;;;;16.21;53.04;101501.47;5054967;28;46273;-86
2021/05/28 06:54:07;;;;;;;;;22.75;20.75;;;;;16.22;53.23;101504.00;5053350;28;45606;-85
2021/05/28 06:56:32;;;;;;;;;24.25;21.75;;;;;16.24;53.27;101496.81;5055687;28;45638;-84
2021/05/28 07:02:20;;;;;;;;;20.50;19.75;;;;;16.33;53.20;101496.03;5054278;28;46191;-86
2021/05/28 07:04:45;;;;;;;;;23.00;20.25;;;;;16.38;53.17;101490.38;5053282;28;45779;-86
2021/05/28 07:07:10;;;;;;;;;18.75;18.25;;;;;16.46;53.24;101497.69;5055349;28;45553;-86
2021/05/28 07:09:36;;;;;;;;;22.00;20.00;;;;;16.50;52.84;101502.63;5054506;28;45616;-85
2021/05/28 07:12:01;;;;;;;;;20.00;18.50;;;;;16.51;52.99;101499.00;5054572;28;45708;-85
2021/05/28 07:14:27;;;;;;;;;16.50;16.50;;;;;16.57;52.84;101497.66;5054690;28;45657;-86
2021/05/28 07:16:52;;;;;;;;;17.25;17.25;;;;;16.64;52.63;101509.44;5055065;28;45764;-86
2021/05/28 07:19:17;;;;;;;;;18.25;15.25;;;;;16.70;52.91;101506.28;5054328;28;47292;-86
2021/05/28 07:21:43;;;;;;;;;20.50;19.00;;;;;16.69;52.97;101501.97;5054894;28;45680;-85
2021/05/28 07:24:09;;;;;;;;;17.00;16.25;;;;;16.76;52.44;101506.63;5074524;28;45517;-82
2021/05/28 07:26:34;;;;;;;;;19.75;17.00;;;;;16.81;52.26;101506.25;5060312;28;45728;-83
2021/05/28 07:32:21;;;;;;;;;25.00;24.00;;;;;16.90;52.36;101501.97;5052090;28;46301;-82
2021/05/28 07:34:47;;;;;;;;;19.25;16.50;;;;;16.93;52.20;101497.28;5053811;28;45582;-83
2021/05/28 07:37:13;;;;;;;;;21.50;18.75;;;;;16.97;52.31;101506.66;5054008;28;45655;-82
2021/05/28 07:39:38;;;;;;;;;15.25;14.75;;;;;17.01;52.39;101494.84;5054037;28;45588;-83
2021/05/28 07:42:04;;;;;;;;;14.00;13.25;;;;;17.06;52.16;101489.16;5054897;28;45413;-83
2021/05/28 07:44:30;;;;;;;;;16.00;16.00;;;;;17.10;52.00;101487.94;5054919;28;45767;-83
2021/05/28 07:46:56;;;;;;;;;12.75;12.00;;;;;17.14;52.00;101476.94;5052596;28;45877;-81
2021/05/28 07:49:22;;;;;;;;;14.00;14.00;;;;;17.19;52.04;101477.41;5053470;28;46609;-79
2021/05/28 07:51:47;;;;;;;;;14.50;13.75;;;;;17.23;51.65;101477.97;5053645;28;45728;-80
2021/05/28 07:54:13;;;;;;;;;15.00;15.00;;;;;17.28;51.71;101472.28;5053625;28;45494;-80
2021/05/28 07:56:38;;;;;;;;;12.50;12.00;;;;;17.29;51.39;101476.59;5053958;28;45662;-79
2021/05/28 08:02:26;;;;;;;;;16.25;15.25;;;;;17.43;51.44;101471.00;5053243;28;46148;-80
2021/05/28 08:04:51;;;;;;;;;16.50;15.00;;;;;17.50;51.36;101472.97;5053849;28;45611;-80
2021/05/28 08:07:17;;;;;;;;;13.75;13.50;;;;;17.54;51.30;101470.91;5054160;28;45769;-79
2021/05/28 08:09:42;;;;;;;;;13.50;13.00;;;;;17.63;51.21;101483.38;5053452;28;45886;-80
2021/05/28 08:12:08;;;;;;;;;13.50;12.25;;;;;17.67;50.76;101481.28;5053439;28;46219;-80
2021/05/28 08:14:33;;;;;;;;;13.25;13.00;;;;;17.71;50.74;101485.34;5053488;28;45653;-81
2021/05/28 08:16:59;;;;;;;;;15.00;14.25;;;;;17.73;50.68;101478.13;5053671;28;45530;-80
2021/05/28 08:19:24;;;;;;;;;13.50;12.50;;;;;17.72;50.53;101466.66;5053230;28;45889;-80
2021/05/28 08:21:50;;;;;;;;;13.75;12.75;;;;;17.81;50.34;101470.34;5068857;28;48521;-80
2021/05/28 08:24:16;;;;;;;;;15.00;13.75;;;;;17.85;50.40;101472.59;5053607;28;45578;-79
2021/05/28 08:26:41;;;;;;;;;12.75;11.75;;;;;17.92;50.11;101467.59;5053586;28;45633;-79
2021/05/28 08:32:31;;;;;;;;;16.50;15.25;;;;;18.01;50.01;101467.59;5051811;28;46024;-80
2021/05/28 08:34:57;;;;;;;;;16.75;15.25;;;;;18.07;49.90;101476.84;5053382;28;45597;-78
2021/05/28 08:37:22;;;;;;;;;20.50;18.00;;;;;18.09;49.76;101466.91;5053635;28;45511;-81
2021/05/28 08:39:48;;;;;;;;;14.00;13.50;;;;;18.15;49.79;101478.78;5053264;28;45640;-83
2021/05/28 08:42:13;;;;;;;;;14.25;13.25;;;;;18.18;50.20;101467.91;5053174;28;45633;-81
2021/05/28 08:44:41;;;;;;;;;13.00;13.00;;;;;18.23;49.85;101455.09;5053307;28;45789;-81
2021/05/28 08:47:06;;;;;;;;;14.50;14.00;;;;;18.26;49.87;101460.09;5055152;28;45511;-81
2021/05/28 08:49:31;;;;;;;;;15.25;14.25;;;;;18.31;49.73;101456.06;5056464;28;45860;-82
2021/05/28 08:51:57;;;;;;;;;13.00;12.25;;;;;18.27;49.45;101440.56;5056538;28;45424;-83
2021/05/28 08:54:24;;;;;;;;;12.25;11.75;;;;;18.31;49.04;101450.75;5072157;27;45793;-84
2021/05/28 08:56:50;;;;;;;;;14.75;13.50;;;;;18.30;49.27;101448.25;5057125;28;45757;-81
2021/05/28 09:02:39;;;;;;;;;15.50;13.50;;;;;18.32;48.98;101452.44;5057143;28;46067;-85
2021/05/28 09:05:09;;;;;;;;;12.00;12.00;;;;;18.35;48.72;101451.34;5055153;28;45783;-82
2021/05/28 09:07:35;;;;;;;;;15.25;11.75;;;;;18.37;48.87;101446.72;5056963;28;45678;-81
2021/05/28 09:10:01;;;;;;;;;14.50;12.75;;;;;18.41;48.81;101451.59;5056318;28;45883;-83
2021/05/28 09:12:27;;;;;;;;;13.00;12.75;;;;;18.39;49.07;101440.31;5056387;28;46153;-84
2021/05/28 09:14:53;;;;;;;;;10.50;10.00;;;;;18.47;48.74;101442.25;5056723;28;45503;-84
2021/05/28 09:17:19;;;;;;;;;13.00;12.00;;;;;18.53;48.45;101446.16;5057222;28;45761;-83
2021/05/28 09:19:54;;;;;;;;;13.75;12.00;;;;;18.57;48.49;101447.59;5056569;28;46398;-85
2021/05/28 09:22:20;;;;;;;;;12.25;11.75;;;;;18.64;48.42;101446.03;5061729;28;45966;-84
2021/05/28 09:24:46;;;;;;;;;9.25;9.00;;;;;18.72;48.65;101448.84;5064844;28;45696;-83
2021/05/28 09:33:57;;;;;;;;;7.50;7.50;;;;;18.92;48.16;101433.72;5057980;28;45475;-84
2021/05/28 09:36:27;;;;;;;;;8.00;8.00;;;;;18.98;48.17;101431.34;5062511;28;45648;-88
2021/05/28 09:38:53;;;;;;;;;7.50;7.25;;;;;19.08;47.48;101429.50;5062897;28;45503;-86
2021/05/28 09:41:44;;;;;;;;;8.50;8.25;;;;;19.17;47.37;101430.44;5061314;28;46371;-84
2021/05/28 09:47:36;;;;;;;;;8.00;8.00;;;;;19.31;46.87;101429.16;5058136;28;45685;-86
2021/05/28 09:50:01;;;;;;;;;6.25;5.75;;;;;19.33;46.97;101428.00;5055717;28;45701;-88
2021/05/28 09:52:32;;;;;;;;;7.50;6.50;;;;;19.31;46.68;101413.22;5071871;27;48246;-83
2021/05/28 09:55:02;;;;;;;;;4.75;4.75;;;;;19.38;46.47;101414.31;5071759;28;46516;-82
2021/05/28 09:57:28;;;;;;;;;6.75;5.25;;;;;19.47;46.68;101413.44;5056390;28;45657;-89
2021/05/28 10:03:18;;;;;;;;;7.50;6.50;;;;;19.60;46.00;101409.44;5059224;28;45831;-84
2021/05/28 10:05:47;;;;;;;;;5.75;5.00;;;;;19.65;45.98;101414.31;5058675;28;46012;-86
2021/05/28 10:08:14;;;;;;;;;8.25;6.75;;;;;19.73;45.54;101411.78;5058791;28;45601;-83
2021/05/28 10:10:42;;;;;;;;;5.75;5.00;;;;;19.79;45.52;101416.50;5061046;28;45938;-85
2021/05/28 10:13:10;;;;;;;;;5.25;4.50;;;;;19.83;45.35;101398.41;5065373;28;45646;-85
2021/05/28 10:15:38;;;;;;;;;6.25;5.50;;;;;19.92;45.06;101403.66;5061316;28;45997;-83
2021/05/28 10:18:04;;;;;;;;;7.75;7.25;;;;;19.94;45.01;101395.53;5058423;28;45910;-85
2021/05/28 10:20:29;;;;;;;;;6.00;5.75;;;;;19.98;44.94;101403.06;5062163;28;45831;-83
2021/05/28 10:22:55;;;;;;;;;6.25;5.75;;;;;20.00;44.91;101394.94;5062916;28;46444;-91
2021/05/28 10:25:20;;;;;;;;;6.00;5.00;;;;;20.04;44.86;101393.66;5061431;28;45586;-85
2021/05/28 10:27:55;;;;;;;;;4.25;4.25;;;;;20.07;44.46;101399.53;5061338;28;45862;-87
2021/05/28 10:30:23;;;;;;;;;5.00;5.00;;;;;20.14;44.19;101407.72;5061030;28;45618;-85
2021/05/28 10:33:18;;;;;;;;;6.00;5.00;;;;;20.22;44.19;101414.97;5061205;28;46578;-87
2021/05/28 10:35:49;;;;;;;;;6.75;5.50;;;;;20.22;44.26;101407.81;5071407;28;45617;-82
2021/05/28 10:38:29;;;;;;;;;5.00;4.00;;;;;20.25;44.37;101396.84;5055344;28;45640;-75
2021/05/28 10:41:07;;;;;;;;;4.00;3.25;;;;;20.28;44.11;101395.72;5055097;28;45717;-77
2021/05/28 10:43:34;;;;;;;;;3.00;3.00;;;;;20.30;43.54;101401.72;5054874;28;45558;-78
2021/05/28 10:46:05;;;;;;;;;4.00;3.75;;;;;20.34;44.15;101398.66;5055824;28;45850;-78
2021/05/28 10:48:42;;;;;;;;;5.50;4.50;;;;;20.37;43.59;101394.84;5054699;28;45686;-79
2021/05/28 10:51:15;;;;;;;;;4.75;4.00;;;;;20.38;43.47;101392.03;5054737;28;45622;-76
2021/05/28 10:54:00;;;;;;;;;5.00;4.25;;;;;20.40;42.89;101402.53;5056415;28;45534;-79
2021/05/28 10:56:47;;;;;;;;;3.00;3.00;;;;;20.40;42.68;101397.22;5054500;28;46501;-79
2021/05/28 10:59:14;;;;;;;;;5.00;4.00;;;;;20.40;43.10;101389.22;5054170;28;45570;-76
2021/05/28 11:01:58;;;;;;;;;4.00;4.00;;;;;20.45;42.71;101406.41;5054754;28;45683;-78
2021/05/28 11:04:49;;;;;;;;;2.00;2.00;;;;;20.51;42.19;101394.31;5054599;28;46376;-78
2021/05/28 11:07:16;;;;;;;;;3.25;3.00;;;;;20.54;42.33;101383.34;5054570;28;45835;-78
2021/05/28 11:09:50;;;;;;;;;2.50;2.25;;;;;20.58;41.63;101390.00;5053857;28;45651;-78
2021/05/28 11:12:24;;;;;;;;;2.00;2.00;;;;;20.60;41.79;101388.03;5054435;28;45585;-77
2021/05/28 11:15:09;;;;;;;;;4.25;3.50;;;;;20.62;41.36;101388.72;5054203;28;45567;-78
2021/05/28 11:17:58;;;;;;;;;3.25;3.00;;;;;20.62;41.96;101393.22;5054272;28;46006;-79
2021/05/28 11:20:34;;;;;;;;;3.50;3.00;;;;;20.61;41.92;101380.91;5054299;28;45605;-80
2021/05/28 11:23:07;;;;;;;;;5.00;4.75;;;;;20.62;42.01;101382.56;5054705;28;45770;-78
2021/05/28 11:25:48;;;;;;;;;4.00;4.00;;;;;20.63;41.53;101382.41;5054529;28;46845;-79
2021/05/28 11:31:35;;;;;;;;;4.75;4.00;;;;;20.75;41.35;101380.31;5053936;28;45633;-79
2021/05/28 11:34:01;;;;;;;;;3.00;3.00;;;;;20.83;41.15;101375.91;5053814;28;45652;-77
2021/05/28 11:36:26;;;;;;;;;3.00;3.00;;;;;20.91;40.92;101373.28;5054031;28;45613;-78
2021/05/28 11:38:59;;;;;;;;;6.00;5.75;;;;;20.94;40.73;101366.81;5053839;28;45634;-79
2021/05/28 11:41:47;;;;;;;;;2.00;2.00;;;;;21.07;40.78;101375.19;5053726;28;45584;-77
2021/05/28 11:47:37;;;;;;;;;3.00;2.25;;;;;21.29;40.54;101368.50;5053697;28;45653;-79
2021/05/28 11:50:05;;;;;;;;;3.75;3.00;;;;;21.37;40.53;101365.91;5053920;28;46261;-78
2021/05/28 11:52:31;;;;;;;;;2.00;2.00;;;;;21.42;40.12;101360.91;5054006;28;45730;-79
2021/05/28 11:55:13;;;;;;;;;3.00;3.00;;;;;21.48;40.45;101359.44;5052676;28;45512;-79
2021/05/28 11:57:39;;;;;;;;;2.25;2.25;;;;;21.46;39.90;101351.59;5054026;28;45656;-80
2021/05/28 12:03:26;;;;;;;;;3.25;2.25;;;;;21.58;39.76;101352.97;5053600;28;45637;-77
2021/05/28 12:05:54;;;;;;;;;5.00;4.00;;;;;21.64;39.83;101351.47;5054100;28;45737;-77
2021/05/28 12:08:29;;;;;;;;;3.00;2.00;;;;;21.68;39.57;101355.50;5053785;28;45553;-83
2021/05/28 12:10:58;;;;;;;;;3.00;2.00;;;;;21.68;39.62;101345.66;5053716;28;45583;-80
2021/05/28 12:13:29;;;;;;;;;2.00;1.50;;;;;21.69;39.29;101331.31;5053334;28;45820;-81
2021/05/28 12:16:01;;;;;;;;;2.00;2.00;;;;;21.71;39.00;101333.81;5053698;28;45758;-82
2021/05/28 12:18:42;;;;;;;;;1.25;1.25;;;;;21.75;39.00;101338.66;5053478;28;45636;-82
2021/05/28 12:21:23;;;;;;;;;2.00;2.00;;;;;21.80;38.19;101324.00;5054233;28;45663;-82
2021/05/28 12:23:50;;;;;;;;;2.00;2.00;;;;;21.82;38.57;101336.16;5057206;28;45792;-82
2021/05/28 12:26:20;;;;;;;;;2.00;2.00;;;;;21.83;38.38;101335.19;5057176;28;45438;-82
2021/05/28 12:28:49;;;;;;;;;2.00;1.25;;;;;21.87;38.05;101333.00;5056768;28;46607;-82
2021/05/28 12:31:15;;;;;;;;;1.25;1.25;;;;;21.92;38.12;101341.34;5056869;28;45823;-82
2021/05/28 12:33:43;;;;;;;;;1.00;1.00;;;;;21.91;38.08;101334.38;5056532;28;45831;-82
2021/05/28 12:36:21;;;;;;;;;1.50;1.00;;;;;21.94;37.80;101334.91;5057100;28;45753;-87
2021/05/28 12:38:50;;;;;;;;;2.00;1.00;;;;;21.93;37.90;101330.53;5058858;27;46717;-85